Eoline, Alabama
Current Conditions -  °F | °C
As of 6:53 PM on Monday 24 Nov 2014 (Local Time) from KEET Reporting Station
Clear Clear  
Wind Chill: 56°   Ceiling: Unl
Heat Index: 56°   Visibility: 10mi
Dew Point: 44°   Wind: 5mph
Humidity: 64%   Direction: 310°NW
Pressure: 29.97"   Gusts: NA
Location:  32.9085°N, 87.0467°W
Report Text: KEET 250053Z AUTO 31004KT 10SM CLR 13/07 A2997 RMK AO2 SLP144 T01330067
Loading
Personal Weather Stations






























Interactive Weather Map New forecast layout! Learn more

10-Day Weather Forecast

Advertisements
Track Severe Weather on mobile